createdAt,value
2023-02-02T00:01:02.308Z,101351.91
2023-02-02T00:03:28.463Z,101371.72
2023-02-02T00:05:54.610Z,101366.59
2023-02-02T00:08:20.786Z,101354.41
2023-02-02T00:10:47.009Z,101361.47
2023-02-02T00:13:13.215Z,101351.00
2023-02-02T00:15:39.409Z,101358.84
2023-02-02T00:18:05.559Z,101357.22
2023-02-02T00:20:31.733Z,101352.00
2023-02-02T00:22:57.939Z,101362.44
2023-02-02T00:25:24.312Z,101360.75
2023-02-02T00:27:50.647Z,101351.25
2023-02-02T00:30:16.825Z,101348.63
2023-02-02T00:32:42.934Z,101351.19
2023-02-02T00:35:09.052Z,101343.63
2023-02-02T00:37:35.200Z,101348.91
2023-02-02T00:40:01.373Z,101339.44
2023-02-02T00:42:27.531Z,101341.13
2023-02-02T00:44:53.735Z,101354.09
2023-02-02T00:47:19.928Z,101355.81
2023-02-02T00:49:46.131Z,101357.53
2023-02-02T00:52:12.332Z,101356.63
2023-02-02T00:54:38.523Z,101354.81
2023-02-02T00:57:04.708Z,101353.97
2023-02-02T00:59:30.863Z,101359.19
2023-02-02T01:01:57.105Z,101363.41
2023-02-02T01:04:25.653Z,101364.22
2023-02-02T01:06:51.927Z,101365.22
2023-02-02T01:09:18.380Z,101362.59
2023-02-02T01:11:44.576Z,101349.59
2023-02-02T01:14:10.754Z,101359.09
2023-02-02T01:16:37.025Z,101362.56
2023-02-02T01:19:03.181Z,101367.72
2023-02-02T01:21:29.343Z,101372.94
2023-02-02T01:23:55.555Z,101366.84
2023-02-02T01:26:21.790Z,101365.22
2023-02-02T01:28:48.025Z,101359.09
2023-02-02T01:31:14.259Z,101365.16
2023-02-02T01:33:40.550Z,101356.44
2023-02-02T01:36:06.729Z,101354.78
2023-02-02T01:38:32.927Z,101354.75
2023-02-02T01:40:59.079Z,101352.97
2023-02-02T01:43:25.222Z,101356.28
2023-02-02T01:45:51.406Z,101346.88
2023-02-02T01:48:17.599Z,101349.41
2023-02-02T01:50:43.817Z,101347.72
2023-02-02T01:53:09.979Z,101339.06
2023-02-02T01:55:36.151Z,101332.97
2023-02-02T01:58:02.267Z,101358.88
2023-02-02T02:00:28.405Z,101354.56
2023-02-02T02:02:54.529Z,101347.66
2023-02-02T02:05:20.708Z,101342.41
2023-02-02T02:07:46.907Z,101343.22
2023-02-02T02:10:13.055Z,101352.72
2023-02-02T02:12:39.202Z,101351.91
2023-02-02T02:15:05.374Z,101351.84
2023-02-02T02:17:31.554Z,101354.47
2023-02-02T02:19:57.708Z,101348.41
2023-02-02T02:22:23.821Z,101352.59
2023-02-02T02:24:50.001Z,101361.19
2023-02-02T02:27:16.169Z,101350.75
2023-02-02T02:29:42.289Z,101354.19
2023-02-02T02:32:08.513Z,101349.75
2023-02-02T02:34:34.633Z,101357.56
2023-02-02T02:37:00.846Z,101347.09
2023-02-02T02:39:27.057Z,101347.16
2023-02-02T02:41:53.171Z,101349.63
2023-02-02T02:44:19.361Z,101353.09
2023-02-02T02:46:45.524Z,101358.28
2023-02-02T02:49:11.676Z,101356.47
2023-02-02T02:51:37.855Z,101356.38
2023-02-02T02:54:04.026Z,101357.28
2023-02-02T02:56:30.149Z,101351.31
2023-02-02T02:58:56.317Z,101346.94
2023-02-02T03:01:22.545Z,101347.88
2023-02-02T03:03:48.757Z,101348.59
2023-02-02T03:06:14.932Z,101346.88
2023-02-02T03:08:41.147Z,101350.34
2023-02-02T03:11:07.372Z,101360.69
2023-02-02T03:13:33.491Z,101355.50
2023-02-02T03:15:59.692Z,101355.50
2023-02-02T03:18:25.923Z,101362.53
2023-02-02T03:20:52.096Z,101358.19
2023-02-02T03:23:18.286Z,101363.28
2023-02-02T03:25:44.508Z,101364.19
2023-02-02T03:28:10.675Z,101367.59
2023-02-02T03:30:36.844Z,101370.16
2023-02-02T03:33:02.976Z,101357.97
2023-02-02T03:35:29.111Z,101352.78
2023-02-02T03:37:55.284Z,101355.38
2023-02-02T03:40:21.474Z,101352.78
2023-02-02T03:42:47.653Z,101351.88
2023-02-02T03:45:13.831Z,101356.97
2023-02-02T03:47:40.020Z,101355.28
2023-02-02T03:50:06.200Z,101366.53
2023-02-02T03:52:32.359Z,101359.69
2023-02-02T03:54:58.486Z,101362.31
2023-02-02T03:57:24.636Z,101364.91
2023-02-02T03:59:50.815Z,101368.38
2023-02-02T04:02:17.064Z,101361.38
2023-02-02T04:04:43.264Z,101358.72
2023-02-02T04:07:09.465Z,101363.94
2023-02-02T04:09:35.641Z,101368.97
2023-02-02T04:12:01.809Z,101370.75
2023-02-02T04:14:27.950Z,101381.22
2023-02-02T04:16:54.112Z,101371.59
2023-02-02T04:19:20.323Z,101375.91
2023-02-02T04:21:46.529Z,101379.53
2023-02-02T04:24:12.660Z,101383.00
2023-02-02T04:26:38.868Z,101380.44
2023-02-02T04:29:05.115Z,101383.19
2023-02-02T04:31:31.341Z,101379.75
2023-02-02T04:33:57.552Z,101389.28
2023-02-02T04:36:23.722Z,101383.25
2023-02-02T04:38:49.839Z,101394.44
2023-02-02T04:41:15.999Z,101395.25
2023-02-02T04:43:42.166Z,101389.13
2023-02-02T04:46:08.362Z,101399.53
2023-02-02T04:48:34.555Z,101403.72
2023-02-02T04:51:00.782Z,101394.34
2023-02-02T04:53:27.050Z,101406.34
2023-02-02T04:55:53.295Z,101400.28
2023-02-02T04:58:19.540Z,101402.75
2023-02-02T05:00:45.781Z,101401.16
2023-02-02T05:03:11.979Z,101404.47
2023-02-02T05:05:38.172Z,101412.25
2023-02-02T05:08:04.334Z,101409.56
2023-02-02T05:10:30.579Z,101410.47
2023-02-02T05:12:56.710Z,101412.19
2023-02-02T05:15:23.255Z,101415.66
2023-02-02T05:17:49.584Z,101416.59
2023-02-02T05:20:15.826Z,101420.94
2023-02-02T05:22:41.968Z,101418.41
2023-02-02T05:25:08.150Z,101425.34
2023-02-02T05:27:34.319Z,101425.31
2023-02-02T05:30:00.450Z,101423.72
2023-02-02T05:32:26.627Z,101421.91
2023-02-02T05:34:52.805Z,101427.22
2023-02-02T05:37:18.954Z,101425.56
2023-02-02T05:39:45.120Z,101428.25
2023-02-02T05:42:11.240Z,101424.84
2023-02-02T05:44:37.423Z,101430.94
2023-02-02T05:47:03.610Z,101442.94
2023-02-02T05:49:29.831Z,101442.88
2023-02-02T05:51:55.969Z,101446.31
2023-02-02T05:54:22.095Z,101437.63
2023-02-02T05:56:48.322Z,101441.13
2023-02-02T05:59:14.452Z,101447.09
2023-02-02T06:01:40.658Z,101450.50
2023-02-02T06:04:06.864Z,101450.50
2023-02-02T06:06:33.092Z,101451.31
2023-02-02T06:09:02.736Z,101453.78
2023-02-02T06:11:29.016Z,101452.13
2023-02-02T06:13:55.234Z,101446.94
2023-02-02T06:16:21.375Z,101451.25
2023-02-02T06:18:47.489Z,101447.72
2023-02-02T06:21:13.684Z,101445.13
2023-02-02T06:23:39.862Z,101438.34
2023-02-02T06:26:06.028Z,101437.44
2023-02-02T06:28:32.373Z,101445.16
2023-02-02T06:30:58.572Z,101453.78
2023-02-02T06:33:24.797Z,101451.19
2023-02-02T06:35:50.994Z,101455.63
2023-02-02T06:38:17.160Z,101459.91
2023-02-02T06:40:43.356Z,101459.84
2023-02-02T06:43:12.442Z,101452.84
2023-02-02T06:45:38.601Z,101460.66
2023-02-02T06:48:04.778Z,101460.78
2023-02-02T06:50:31.107Z,101462.41
2023-02-02T06:52:57.278Z,101459.81
2023-02-02T06:55:23.776Z,101458.03
2023-02-02T06:57:50.057Z,101460.63
2023-02-02T07:00:16.185Z,101473.66
2023-02-02T07:02:42.382Z,101462.38
2023-02-02T07:05:08.656Z,101463.31
2023-02-02T07:07:34.834Z,101468.53
2023-02-02T07:10:01.041Z,101472.00
2023-02-02T07:12:27.202Z,101471.03
2023-02-02T07:14:53.382Z,101468.47
2023-02-02T07:17:19.567Z,101474.47
2023-02-02T07:19:45.776Z,101473.56
2023-02-02T07:22:11.974Z,101471.84
2023-02-02T07:24:38.091Z,101477.09
2023-02-02T07:27:04.263Z,101478.00
2023-02-02T07:29:30.447Z,101483.25
2023-02-02T07:31:56.597Z,101488.41
2023-02-02T07:34:22.791Z,101485.72
2023-02-02T07:36:48.902Z,101496.06
2023-02-02T07:39:15.057Z,101503.06
2023-02-02T07:41:41.203Z,101497.06
2023-02-02T07:44:07.394Z,101508.34
2023-02-02T07:46:33.593Z,101513.50
2023-02-02T07:48:59.826Z,101507.47
2023-02-02T07:51:25.967Z,101506.66
2023-02-02T07:53:52.214Z,101516.09
2023-02-02T07:56:18.399Z,101522.91
2023-02-02T07:58:44.571Z,101530.63
2023-02-02T08:01:10.789Z,101527.16
2023-02-02T08:03:37.031Z,101527.06
2023-02-02T08:06:03.269Z,101520.03
2023-02-02T08:08:29.386Z,101532.06
2023-02-02T08:10:55.573Z,101512.06
2023-02-02T08:13:21.709Z,101517.00
2023-02-02T08:15:48.155Z,101518.78
2023-02-02T08:18:14.440Z,101530.97
2023-02-02T08:20:40.613Z,101532.59
2023-02-02T08:23:06.770Z,101540.50
2023-02-02T08:25:32.956Z,101537.75
2023-02-02T08:27:59.098Z,101540.44
2023-02-02T08:30:25.357Z,101536.22
2023-02-02T08:32:51.667Z,101534.41
2023-02-02T08:35:17.861Z,101526.50
2023-02-02T08:37:44.132Z,101534.13
2023-02-02T08:40:10.377Z,101532.94
2023-02-02T08:42:36.658Z,101521.75
2023-02-02T08:46:01.207Z,101537.25
2023-02-02T08:47:53.823Z,101547.63
2023-02-02T08:50:25.114Z,101538.00
2023-02-02T08:52:51.288Z,101539.59
2023-02-02T08:55:17.540Z,101538.63
2023-02-02T08:57:43.716Z,101542.00
2023-02-02T09:00:09.839Z,101539.97
2023-02-02T09:02:36.076Z,101534.84
2023-02-02T09:05:02.330Z,101536.50
2023-02-02T09:07:28.532Z,101533.78
2023-02-02T09:09:54.714Z,101537.69
2023-02-02T09:12:20.969Z,101536.75
2023-02-02T09:14:47.148Z,101536.72
2023-02-02T09:17:13.289Z,101537.34
2023-02-02T09:19:39.491Z,101538.25
2023-02-02T09:22:05.674Z,101532.25
2023-02-02T09:24:31.882Z,101543.50
2023-02-02T09:26:58.219Z,101540.69
2023-02-02T09:29:24.457Z,101537.97
2023-02-02T09:31:50.711Z,101544.75
2023-02-02T09:34:16.938Z,101544.84
2023-02-02T09:36:43.127Z,101550.16
2023-02-02T09:39:09.352Z,101555.44
2023-02-02T09:41:35.548Z,101552.13
2023-02-02T09:44:01.691Z,101553.06
2023-02-02T09:46:27.963Z,101544.47
2023-02-02T09:48:54.132Z,101535.84
2023-02-02T09:51:20.316Z,101540.19
2023-02-02T09:53:55.169Z,101550.59
2023-02-02T09:56:22.036Z,101550.47
2023-02-02T09:58:48.215Z,101522.16
2023-02-02T10:01:14.420Z,101562.34
2023-02-02T10:03:40.692Z,101567.72
2023-02-02T10:06:06.922Z,101559.88
2023-02-02T10:08:35.033Z,101563.50
2023-02-02T10:11:01.841Z,101568.56
2023-02-02T10:13:28.034Z,101575.47
2023-02-02T10:15:54.301Z,101579.84
2023-02-02T10:18:20.489Z,101569.63
2023-02-02T10:20:46.628Z,101581.06
2023-02-02T10:23:12.817Z,101576.81
2023-02-02T10:25:38.983Z,101578.69
2023-02-02T10:28:05.157Z,101584.75
2023-02-02T10:30:31.280Z,101590.78
2023-02-02T10:32:59.071Z,101583.72
2023-02-02T10:35:27.135Z,101595.16
2023-02-02T10:37:53.327Z,101590.84
2023-02-02T10:40:19.533Z,101599.56
2023-02-02T10:42:45.773Z,101591.81
2023-02-02T10:45:11.976Z,101594.34
2023-02-02T10:47:38.197Z,101602.22
2023-02-02T10:50:04.385Z,101596.97
2023-02-02T10:52:30.619Z,101603.09
2023-02-02T10:54:58.728Z,101596.06
2023-02-02T10:57:25.682Z,101613.44
2023-02-02T10:59:51.951Z,101591.81
2023-02-02T11:02:21.133Z,101593.31
2023-02-02T11:04:47.608Z,101605.47
2023-02-02T11:07:13.810Z,101599.34
2023-02-02T11:09:40.037Z,101606.22
2023-02-02T11:12:06.275Z,101597.50
2023-02-02T11:14:35.157Z,101595.75
2023-02-02T11:17:05.399Z,101608.69
2023-02-02T11:19:31.584Z,101609.44
2023-02-02T11:21:57.753Z,101600.72
2023-02-02T11:24:23.992Z,101599.09
2023-02-02T11:26:50.217Z,101602.50
2023-02-02T11:29:16.459Z,101597.16
2023-02-02T11:31:42.675Z,101601.50
2023-02-02T11:34:08.871Z,101597.06
2023-02-02T11:36:35.010Z,101598.69
2023-02-02T11:39:01.170Z,101587.19
2023-02-02T11:41:27.324Z,101590.75
2023-02-02T11:43:53.505Z,101595.03
2023-02-02T11:46:19.824Z,101600.09
2023-02-02T11:48:46.098Z,101595.13
2023-02-02T11:51:12.275Z,101594.06
2023-02-02T11:53:38.475Z,101601.00
2023-02-02T11:56:05.187Z,101601.13
2023-02-02T11:58:31.377Z,101595.09
2023-02-02T12:00:57.579Z,101602.03
2023-02-02T12:03:23.800Z,101600.31
2023-02-02T12:05:49.978Z,101604.72
2023-02-02T12:08:17.295Z,101600.44
2023-02-02T12:10:43.555Z,101593.63
2023-02-02T12:13:09.731Z,101592.63
2023-02-02T12:15:35.951Z,101596.91
2023-02-02T12:18:02.143Z,101588.06
2023-02-02T12:20:28.564Z,101579.34
2023-02-02T12:22:54.945Z,101586.28
2023-02-02T12:25:21.257Z,101586.22
2023-02-02T12:27:47.441Z,101578.06
2023-02-02T12:30:13.690Z,101582.16
2023-02-02T12:32:39.859Z,101587.31
2023-02-02T12:35:06.046Z,101580.38
2023-02-02T12:37:32.276Z,101569.03
2023-02-02T12:39:58.433Z,101578.56
2023-02-02T12:42:24.638Z,101582.78
2023-02-02T12:44:51.231Z,101588.56
2023-02-02T12:47:17.424Z,101565.88
2023-02-02T12:49:43.646Z,101569.00
2023-02-02T12:52:11.353Z,101560.31
2023-02-02T12:54:44.860Z,101567.09
2023-02-02T12:57:17.512Z,101549.66
2023-02-02T12:59:43.700Z,101548.16
2023-02-02T13:02:09.884Z,101543.53
2023-02-02T13:04:42.345Z,101543.91
2023-02-02T13:07:08.528Z,101539.72
2023-02-02T13:09:34.683Z,101547.09
2023-02-02T13:12:00.812Z,101546.81
2023-02-02T13:14:27.021Z,101547.94
2023-02-02T13:16:53.259Z,101557.91
2023-02-02T13:19:19.513Z,101545.59
2023-02-02T13:21:45.740Z,101554.84
2023-02-02T13:24:11.875Z,101551.69
2023-02-02T13:26:38.181Z,101557.00
2023-02-02T13:29:04.493Z,101556.66
2023-02-02T13:31:30.758Z,101563.47
2023-02-02T13:33:56.997Z,101576.22
2023-02-02T13:36:25.181Z,101567.09
2023-02-02T13:38:51.375Z,101557.66
2023-02-02T13:41:17.543Z,101561.09
2023-02-02T13:43:44.072Z,101577.38
2023-02-02T13:46:10.341Z,101571.69
2023-02-02T13:48:36.570Z,101571.50
2023-02-02T13:51:02.927Z,101566.25
2023-02-02T13:53:29.087Z,101575.88
2023-02-02T13:55:55.287Z,101588.38
2023-02-02T13:58:21.655Z,101584.06
2023-02-02T14:00:47.886Z,101588.19
2023-02-02T14:03:14.095Z,101586.41
2023-02-02T14:05:40.272Z,101589.13
2023-02-02T14:08:06.442Z,101594.94
2023-02-02T14:10:32.620Z,101593.22
2023-02-02T14:13:00.948Z,101599.31
2023-02-02T14:15:31.502Z,101606.69
2023-02-02T14:17:57.731Z,101611.13
2023-02-02T14:20:24.312Z,101606.25
2023-02-02T14:22:50.468Z,101605.75
2023-02-02T14:25:16.671Z,101605.56
2023-02-02T14:27:42.945Z,101608.34
2023-02-02T14:30:09.066Z,101613.53
2023-02-02T14:32:35.253Z,101612.56
2023-02-02T14:35:01.471Z,101623.00
2023-02-02T14:37:27.701Z,101620.34
2023-02-02T14:39:53.896Z,101632.69
2023-02-02T14:42:20.038Z,101640.53
2023-02-02T14:44:46.166Z,101631.25
2023-02-02T14:47:12.413Z,101634.72
2023-02-02T14:49:38.601Z,101634.59
2023-02-02T14:52:04.822Z,101640.91
2023-02-02T14:54:31.025Z,101639.22
2023-02-02T14:56:57.231Z,101640.16
2023-02-02T14:59:23.434Z,101646.38
2023-02-02T15:01:49.681Z,101660.34
2023-02-02T15:04:15.864Z,101663.00
2023-02-02T15:06:42.060Z,101667.16
2023-02-02T15:09:08.253Z,101668.25
2023-02-02T15:11:34.490Z,101676.91
2023-02-02T15:14:00.658Z,101680.47
2023-02-02T15:16:26.803Z,101682.28
2023-02-02T15:18:52.950Z,101685.75
2023-02-02T15:21:19.159Z,101688.34
2023-02-02T15:23:45.311Z,101701.41
2023-02-02T15:26:11.462Z,101706.69
2023-02-02T15:28:37.681Z,101706.78
2023-02-02T15:31:03.882Z,101705.91
2023-02-02T15:33:30.090Z,101715.44
2023-02-02T15:35:56.318Z,101714.59
2023-02-02T15:38:22.496Z,101721.47
2023-02-02T15:40:48.719Z,101723.09
2023-02-02T15:43:14.856Z,101724.91
2023-02-02T15:45:41.082Z,101718.84
2023-02-02T15:48:07.261Z,101722.44
2023-02-02T15:50:33.614Z,101722.41
2023-02-02T15:52:59.766Z,101731.97
2023-02-02T15:55:26.273Z,101728.53
2023-02-02T15:57:54.171Z,101726.00
2023-02-02T16:00:20.661Z,101748.59
2023-02-02T16:02:48.997Z,101752.06
2023-02-02T16:05:15.189Z,101753.03
2023-02-02T16:07:41.428Z,101762.63
2023-02-02T16:10:07.675Z,101757.47
2023-02-02T16:12:33.810Z,101754.78
2023-02-02T16:14:59.969Z,101763.41
2023-02-02T16:17:26.134Z,101771.44
2023-02-02T16:19:52.316Z,101781.06
2023-02-02T16:22:18.480Z,101785.50
2023-02-02T16:24:44.664Z,101785.56
2023-02-02T16:27:10.839Z,101789.09
2023-02-02T16:29:37.092Z,101797.69
2023-02-02T16:32:03.282Z,101805.41
2023-02-02T16:34:29.449Z,101803.69
2023-02-02T16:36:55.613Z,101811.47
2023-02-02T16:39:21.811Z,101812.22
2023-02-02T16:41:48.061Z,101813.16
2023-02-02T16:44:14.423Z,101820.94
2023-02-02T16:46:40.629Z,101822.56
2023-02-02T16:49:06.838Z,101829.44
2023-02-02T16:51:34.145Z,101826.91
2023-02-02T16:54:00.576Z,101836.53
2023-02-02T16:56:26.787Z,101832.13
2023-02-02T16:58:53.016Z,101838.19
2023-02-02T17:01:19.277Z,101848.59
2023-02-02T17:03:45.445Z,101851.28
2023-02-02T17:06:11.676Z,101841.00
2023-02-02T17:08:37.912Z,101848.78
2023-02-02T17:11:04.086Z,101853.13
2023-02-02T17:13:30.244Z,101847.00
2023-02-02T17:15:56.718Z,101861.88
2023-02-02T17:18:22.873Z,101866.28
2023-02-02T17:20:49.009Z,101864.53
2023-02-02T17:23:15.200Z,101861.09
2023-02-02T17:25:41.376Z,101869.78
2023-02-02T17:28:09.843Z,101869.75
2023-02-02T17:30:36.162Z,101874.97
2023-02-02T17:33:02.470Z,101873.31
2023-02-02T17:35:40.029Z,101876.03
2023-02-02T17:38:17.076Z,101866.50
2023-02-02T17:40:43.946Z,101874.31
2023-02-02T17:43:10.292Z,101875.31
2023-02-02T17:45:36.611Z,101882.19
2023-02-02T17:48:02.827Z,101880.50
2023-02-02T17:50:29.109Z,101881.41
2023-02-02T17:52:55.271Z,101883.22
2023-02-02T17:55:21.434Z,101868.50
2023-02-02T17:57:47.818Z,101872.13
2023-02-02T18:00:14.025Z,101878.28
2023-02-02T18:02:40.185Z,101880.75
2023-02-02T18:05:06.741Z,101885.28
2023-02-02T18:07:32.907Z,101881.94
2023-02-02T18:09:59.044Z,101882.16
2023-02-02T18:12:25.243Z,101871.91
2023-02-02T18:14:51.494Z,101884.19
2023-02-02T18:17:17.630Z,101885.13
2023-02-02T18:19:43.779Z,101895.59
2023-02-02T18:22:09.961Z,101883.56
2023-02-02T18:24:36.970Z,101899.19
2023-02-02T18:27:03.147Z,101902.66
2023-02-02T18:29:29.303Z,101904.38
2023-02-02T18:31:56.104Z,101905.41
2023-02-02T18:34:22.378Z,101913.16
2023-02-02T18:36:48.551Z,101909.75
2023-02-02T18:39:17.035Z,101914.94
2023-02-02T18:41:43.210Z,101909.75
2023-02-02T18:44:09.433Z,101912.31
2023-02-02T18:46:38.615Z,101902.81
2023-02-02T18:49:04.769Z,101901.97
2023-02-02T18:51:31.378Z,101906.28
2023-02-02T18:53:57.539Z,101896.69
2023-02-02T18:56:23.705Z,101894.22
2023-02-02T18:58:49.865Z,101883.81
2023-02-02T19:01:16.065Z,101881.22
2023-02-02T19:03:42.331Z,101877.84
2023-02-02T19:06:08.487Z,101890.00
2023-02-02T19:08:34.701Z,101883.97
2023-02-02T19:11:00.900Z,101890.91
2023-02-02T19:13:27.064Z,101892.63
2023-02-02T19:15:53.394Z,101883.16
2023-02-02T19:18:19.603Z,101897.03
2023-02-02T19:20:45.783Z,101897.91
2023-02-02T19:23:12.305Z,101909.19
2023-02-02T19:25:38.502Z,101916.13
2023-02-02T19:28:04.746Z,101922.28
2023-02-02T19:30:31.097Z,101923.97
2023-02-02T19:32:57.276Z,101926.63
2023-02-02T19:35:23.778Z,101932.66
2023-02-02T19:37:50.095Z,101929.16
2023-02-02T19:40:16.442Z,101946.44
2023-02-02T19:42:42.622Z,101934.31
2023-02-02T19:45:08.819Z,101947.34
2023-02-02T19:47:36.803Z,101942.22
2023-02-02T19:50:02.989Z,101942.16
2023-02-02T19:52:29.235Z,101947.34
2023-02-02T19:54:55.559Z,101947.31
2023-02-02T19:57:21.851Z,101948.16
2023-02-02T19:59:48.012Z,101949.03
2023-02-02T20:02:14.223Z,101952.53
2023-02-02T20:04:40.451Z,101946.41
2023-02-02T20:07:06.672Z,101946.41
2023-02-02T20:09:32.821Z,101935.16
2023-02-02T20:11:59.042Z,101928.16
2023-02-02T20:14:25.240Z,101922.97
2023-02-02T20:16:51.529Z,101923.81
2023-02-02T20:19:17.876Z,101926.44
2023-02-02T20:21:46.254Z,101926.47
2023-02-02T20:24:12.502Z,101930.75
2023-02-02T20:26:38.941Z,101935.97
2023-02-02T20:29:05.203Z,101932.53
2023-02-02T20:31:31.403Z,101936.88
2023-02-02T20:33:57.593Z,101940.25
2023-02-02T20:36:23.899Z,101941.09
2023-02-02T20:38:50.090Z,101943.75
2023-02-02T20:41:19.265Z,101944.63
2023-02-02T20:43:45.505Z,101939.38
2023-02-02T20:46:11.738Z,101935.94
2023-02-02T20:48:37.944Z,101941.13
2023-02-02T20:51:04.097Z,101942.78
2023-02-02T20:53:30.263Z,101943.66
2023-02-02T20:55:56.442Z,101942.84
2023-02-02T20:58:22.628Z,101943.75
2023-02-02T21:00:48.832Z,101946.34
2023-02-02T21:03:15.050Z,101955.00
2023-02-02T21:05:41.243Z,101948.84
2023-02-02T21:08:07.374Z,101952.34
2023-02-02T21:10:33.520Z,101951.47
2023-02-02T21:12:59.707Z,101964.50
2023-02-02T21:15:25.877Z,101963.66
2023-02-02T21:17:52.089Z,101954.97
2023-02-02T21:20:18.321Z,101962.78
2023-02-02T21:22:44.483Z,101962.78
2023-02-02T21:25:10.615Z,101967.97
2023-02-02T21:27:36.773Z,101974.03
2023-02-02T21:30:03.003Z,101978.38
2023-02-02T21:32:29.165Z,101972.34
2023-02-02T21:34:55.331Z,101970.63
2023-02-02T21:37:21.550Z,101967.16
2023-02-02T21:39:47.721Z,101972.34
2023-02-02T21:42:13.900Z,101968.84
2023-02-02T21:44:40.077Z,101961.91
2023-02-02T21:47:06.256Z,101961.94
2023-02-02T21:49:32.420Z,101948.97
2023-02-02T21:51:58.612Z,101953.25
2023-02-02T21:54:26.711Z,101956.75
2023-02-02T21:56:52.954Z,101968.84
2023-02-02T21:59:19.098Z,101951.47
2023-02-02T22:01:45.385Z,101957.53
2023-02-02T22:04:11.645Z,101957.53
2023-02-02T22:06:37.802Z,101955.75
2023-02-02T22:09:03.971Z,101956.69
2023-02-02T22:11:30.086Z,101959.31
2023-02-02T22:13:56.223Z,101952.38
2023-02-02T22:16:22.431Z,101961.00
2023-02-02T22:18:48.601Z,101948.03
2023-02-02T22:21:14.729Z,101946.25
2023-02-02T22:23:40.908Z,101945.38
2023-02-02T22:26:07.060Z,101952.34
2023-02-02T22:28:33.213Z,101940.19
2023-02-02T22:30:59.466Z,101938.50
2023-02-02T22:33:25.705Z,101940.22
2023-02-02T22:35:51.844Z,101939.38
2023-02-02T22:38:18.045Z,101933.31
2023-02-02T22:40:44.279Z,101937.63
2023-02-02T22:43:10.468Z,101930.75
2023-02-02T22:45:36.663Z,101932.44
2023-02-02T22:48:02.856Z,101944.59
2023-02-02T22:50:29.265Z,101949.75
2023-02-02T22:52:55.501Z,101945.41
2023-02-02T22:55:21.668Z,101954.84
2023-02-02T22:57:47.897Z,101961.03
2023-02-02T23:00:14.027Z,101957.56
2023-02-02T23:02:40.258Z,101955.81
2023-02-02T23:05:06.454Z,101955.81
2023-02-02T23:07:32.617Z,101961.03
2023-02-02T23:09:58.812Z,101963.69
2023-02-02T23:12:25.016Z,101970.56
2023-02-02T23:14:51.203Z,101975.75
2023-02-02T23:17:17.341Z,101969.69
2023-02-02T23:19:43.513Z,101976.59
2023-02-02T23:22:09.701Z,101983.53
2023-02-02T23:24:35.835Z,101988.72
2023-02-02T23:27:02.034Z,101982.66
2023-02-02T23:29:28.212Z,101991.31
2023-02-02T23:31:54.405Z,101993.03
2023-02-02T23:34:20.606Z,101994.78
2023-02-02T23:36:46.756Z,101988.69
2023-02-02T23:39:12.914Z,101984.44
2023-02-02T23:41:39.087Z,101986.19
2023-02-02T23:44:05.231Z,101993.97
2023-02-02T23:46:31.424Z,101979.28
2023-02-02T23:48:57.652Z,101985.34
2023-02-02T23:51:23.803Z,101990.50
2023-02-02T23:53:49.992Z,101989.63
2023-02-02T23:56:16.108Z,101977.53
2023-02-02T23:58:42.284Z,101973.22
